createdAt,value
2022-09-10T00:01:20.299Z,16.50
2022-09-10T00:03:49.832Z,16.50
2022-09-10T00:06:18.698Z,16.10
2022-09-10T00:08:46.936Z,16.30
2022-09-10T00:11:15.088Z,15.60
2022-09-10T00:13:42.813Z,15.90
2022-09-10T00:16:14.041Z,15.10
2022-09-10T00:18:42.547Z,15.40
2022-09-10T00:21:12.637Z,15.80
2022-09-10T00:23:40.414Z,15.80
2022-09-10T00:26:27.673Z,15.90
2022-09-10T00:28:59.464Z,16.60
2022-09-10T00:31:27.173Z,16.20
2022-09-10T00:33:54.778Z,16.20
2022-09-10T00:36:25.217Z,16.20
2022-09-10T00:38:54.927Z,16.10
2022-09-10T00:41:24.769Z,16.10
2022-09-10T00:44:02.618Z,16.00
2022-09-10T00:46:47.551Z,16.10
2022-09-10T00:49:47.359Z,15.60
2022-09-10T00:52:15.104Z,15.10
2022-09-10T00:54:43.949Z,15.40
2022-09-10T00:57:16.056Z,15.60
2022-09-10T00:59:47.834Z,16.10
2022-09-10T01:02:15.054Z,16.80
2022-09-10T01:04:42.945Z,14.90
2022-09-10T01:07:11.601Z,16.80
2022-09-10T01:09:39.767Z,16.10
2022-09-10T01:12:35.999Z,16.40
2022-09-10T01:15:35.433Z,15.20
2022-09-10T01:18:34.007Z,14.90
2022-09-10T01:21:17.711Z,14.90
2022-09-10T01:24:04.119Z,14.70
2022-09-10T01:27:11.255Z,14.70
2022-09-10T01:29:55.542Z,14.90
2022-09-10T01:32:33.072Z,14.50
2022-09-10T01:35:46.623Z,14.80
2022-09-10T01:38:35.630Z,15.00
2022-09-10T01:41:04.370Z,15.00
2022-09-10T01:43:36.711Z,15.30
2022-09-10T01:46:41.403Z,15.50
2022-09-10T01:49:31.237Z,15.20
2022-09-10T01:52:26.295Z,15.20
2022-09-10T01:55:33.833Z,14.80
2022-09-10T01:58:17.425Z,14.70
2022-09-10T02:01:10.874Z,14.30
2022-09-10T02:03:40.120Z,14.70
2022-09-10T02:06:12.325Z,15.10
2022-09-10T02:08:41.604Z,15.10
2022-09-10T02:11:12.732Z,15.00
2022-09-10T02:13:42.387Z,14.30
2022-09-10T02:16:31.822Z,14.70
2022-09-10T02:19:00.655Z,14.10
2022-09-10T02:21:28.086Z,14.70
2022-09-10T02:24:10.216Z,13.90
2022-09-10T02:26:40.994Z,14.50
2022-09-10T02:29:09.627Z,15.10
2022-09-10T02:31:38.660Z,14.80
2022-09-10T02:34:05.498Z,15.30
2022-09-10T02:36:33.142Z,15.70
2022-09-10T02:39:02.919Z,15.10
2022-09-10T02:41:32.541Z,15.40
2022-09-10T02:44:01.297Z,15.90
2022-09-10T02:46:29.256Z,14.70
2022-09-10T02:48:56.255Z,14.80
2022-09-10T02:51:24.812Z,14.70
2022-09-10T02:53:52.168Z,14.60
2022-09-10T02:56:20.104Z,14.70
2022-09-10T02:58:47.227Z,14.90
2022-09-10T03:01:19.609Z,15.30
2022-09-10T03:03:56.681Z,15.40
2022-09-10T03:06:25.481Z,14.50
2022-09-10T03:08:55.244Z,15.30
2022-09-10T03:11:25.279Z,15.20
2022-09-10T03:13:52.883Z,14.90
2022-09-10T03:16:20.302Z,15.00
2022-09-10T03:18:47.825Z,15.00
2022-09-10T03:21:21.692Z,14.90
2022-09-10T03:23:50.619Z,15.10
2022-09-10T03:26:25.220Z,15.40
2022-09-10T03:28:53.020Z,15.20
2022-09-10T03:31:22.333Z,15.20
2022-09-10T03:33:51.216Z,15.30
2022-09-10T03:36:18.556Z,15.10
2022-09-10T03:38:47.851Z,15.10
2022-09-10T03:41:14.768Z,16.20
2022-09-10T03:43:41.699Z,14.60
2022-09-10T03:46:11.960Z,14.80
2022-09-10T03:48:43.370Z,14.10
2022-09-10T03:51:10.852Z,14.20
2022-09-10T03:53:38.832Z,14.40
2022-09-10T03:56:07.272Z,14.50
2022-09-10T03:58:35.773Z,14.70
2022-09-10T04:01:04.187Z,15.10
2022-09-10T04:03:34.479Z,14.50
2022-09-10T04:06:01.544Z,14.60
2022-09-10T04:08:28.440Z,16.20
2022-09-10T04:11:02.350Z,14.90
2022-09-10T04:13:29.896Z,14.50
2022-09-10T04:15:56.770Z,14.80
2022-09-10T04:18:24.346Z,14.70
2022-09-10T04:20:51.241Z,14.60
2022-09-10T04:23:18.105Z,14.40
2022-09-10T04:25:46.576Z,14.90
2022-09-10T04:28:13.841Z,14.50
2022-09-10T04:30:40.880Z,14.30
2022-09-10T04:33:09.632Z,14.50
2022-09-10T04:35:36.517Z,14.70
2022-09-10T04:38:07.119Z,14.30
2022-09-10T04:40:38.108Z,14.70
2022-09-10T04:43:05.430Z,14.90
2022-09-10T04:45:36.212Z,15.00
2022-09-10T04:48:06.835Z,15.40
2022-09-10T04:50:35.543Z,14.80
2022-09-10T04:53:16.948Z,15.70
2022-09-10T04:55:47.258Z,14.70
2022-09-10T04:58:15.487Z,14.40
2022-09-10T05:00:44.613Z,14.60
2022-09-10T05:03:13.101Z,14.10
2022-09-10T05:05:42.771Z,14.40
2022-09-10T05:08:09.684Z,15.30
2022-09-10T05:10:36.622Z,14.00
2022-09-10T05:13:05.796Z,14.10
2022-09-10T05:15:34.432Z,14.20
2022-09-10T05:18:04.306Z,14.60
2022-09-10T05:20:35.678Z,14.50
2022-09-10T05:23:02.579Z,14.50
2022-09-10T05:25:29.516Z,14.20
2022-09-10T05:27:58.346Z,13.90
2022-09-10T05:30:26.150Z,14.10
2022-09-10T05:32:53.536Z,14.40
2022-09-10T05:35:20.467Z,14.40
2022-09-10T05:37:48.553Z,14.20
2022-09-10T05:40:15.942Z,13.70
2022-09-10T05:42:44.207Z,15.50
2022-09-10T05:45:11.315Z,14.30
2022-09-10T05:47:38.527Z,14.20
2022-09-10T05:50:07.306Z,14.10
2022-09-10T05:52:34.862Z,14.10
2022-09-10T05:55:06.012Z,14.10
2022-09-10T05:57:33.492Z,15.50
2022-09-10T06:00:01.777Z,14.40
2022-09-10T06:02:30.518Z,14.80
2022-09-10T06:04:58.739Z,15.20
2022-09-10T06:07:28.179Z,14.50
2022-09-10T06:09:55.853Z,14.60
2022-09-10T06:12:35.589Z,14.70
2022-09-10T06:15:03.649Z,14.90
2022-09-10T06:17:30.583Z,13.70
2022-09-10T06:19:58.005Z,14.70
2022-09-10T06:22:25.036Z,14.40
2022-09-10T06:24:53.737Z,14.70
2022-09-10T06:27:23.038Z,14.70
2022-09-10T06:29:52.055Z,14.80
2022-09-10T06:32:19.389Z,14.50
2022-09-10T06:34:47.284Z,14.60
2022-09-10T06:37:14.507Z,14.80
2022-09-10T06:39:41.968Z,14.70
2022-09-10T06:42:08.914Z,14.60
2022-09-10T06:45:00.116Z,14.70
2022-09-10T06:50:36.898Z,14.60
2022-09-10T06:53:04.154Z,14.30
2022-09-10T06:55:31.345Z,14.50
2022-09-10T06:58:00.104Z,13.90
2022-09-10T07:00:32.159Z,14.50
2022-09-10T07:03:01.063Z,14.60
2022-09-10T07:05:29.351Z,14.70
2022-09-10T07:07:56.294Z,14.70
2022-09-10T07:12:51.631Z,14.70
2022-09-10T07:15:20.975Z,14.60
2022-09-10T07:17:47.993Z,14.70
2022-09-10T07:20:15.801Z,15.20
2022-09-10T07:22:47.097Z,15.00
2022-09-10T07:25:15.291Z,14.50
2022-09-10T07:28:04.402Z,14.70
2022-09-10T07:30:35.876Z,14.90
2022-09-10T07:33:02.830Z,14.80
2022-09-10T07:35:31.643Z,14.80
2022-09-10T07:38:00.188Z,13.80
2022-09-10T07:40:28.245Z,15.20
2022-09-10T07:42:56.267Z,15.20
2022-09-10T07:45:23.744Z,15.00
2022-09-10T07:47:51.323Z,15.00
2022-09-10T07:50:32.724Z,14.70
2022-09-10T07:53:01.335Z,14.90
2022-09-10T07:55:29.058Z,15.00
2022-09-10T07:57:59.898Z,15.00
2022-09-10T08:00:28.135Z,15.10
2022-09-10T08:02:59.002Z,14.30
2022-09-10T08:05:28.751Z,15.00
2022-09-10T08:07:55.864Z,16.10
2022-09-10T08:10:25.447Z,15.00
2022-09-10T08:12:52.633Z,15.10
2022-09-10T08:15:20.355Z,15.20
2022-09-10T08:17:47.850Z,15.20
2022-09-10T08:20:15.907Z,15.10
2022-09-10T08:22:44.978Z,15.10
2022-09-10T08:25:12.274Z,15.00
2022-09-10T08:27:42.027Z,14.90
2022-09-10T08:30:16.075Z,15.10
2022-09-10T08:32:43.200Z,15.20
2022-09-10T08:35:11.915Z,15.70
2022-09-10T08:37:38.855Z,15.40
2022-09-10T08:40:08.107Z,14.90
2022-09-10T08:42:48.214Z,15.30
2022-09-10T08:45:23.490Z,15.50
2022-09-10T08:48:08.296Z,15.30
2022-09-10T08:51:13.322Z,15.40
2022-09-10T08:53:54.131Z,15.50
2022-09-10T08:56:23.650Z,15.10
2022-09-10T08:59:14.799Z,15.50
2022-09-10T09:01:50.788Z,15.50
2022-09-10T09:04:47.194Z,15.40
2022-09-10T09:07:19.724Z,14.70
2022-09-10T09:09:51.850Z,15.80
2022-09-10T09:12:37.939Z,15.60
2022-09-10T09:15:20.384Z,15.80
2022-09-10T09:18:15.453Z,15.60
2022-09-10T09:20:48.664Z,15.30
2022-09-10T09:24:11.771Z,15.80
2022-09-10T09:26:39.294Z,15.70
2022-09-10T09:29:11.461Z,15.70
2022-09-10T09:31:44.810Z,15.10
2022-09-10T09:34:21.373Z,15.80
2022-09-10T09:36:53.247Z,15.80
2022-09-10T09:39:38.416Z,15.80
2022-09-10T09:42:23.666Z,15.80
2022-09-10T09:45:06.768Z,14.50
2022-09-10T09:47:33.860Z,15.90
2022-09-10T09:50:00.884Z,16.70
2022-09-10T09:52:31.761Z,16.00
2022-09-10T09:55:24.793Z,16.00
2022-09-10T09:58:20.923Z,16.10
2022-09-10T10:01:21.353Z,16.10
2022-09-10T10:04:01.710Z,16.40
2022-09-10T10:06:33.326Z,16.20
2022-09-10T10:09:07.225Z,16.00
2022-09-10T10:11:47.115Z,15.70
2022-09-10T10:14:30.863Z,16.00
2022-09-10T10:17:01.015Z,16.00
2022-09-10T10:19:40.097Z,15.90
2022-09-10T10:22:18.756Z,17.10
2022-09-10T10:24:48.970Z,15.80
2022-09-10T10:27:54.320Z,15.80
2022-09-10T10:30:23.955Z,15.60
2022-09-10T10:33:00.089Z,15.10
2022-09-10T10:36:13.998Z,15.70
2022-09-10T10:38:47.764Z,15.60
2022-09-10T10:41:58.829Z,15.80
2022-09-10T10:44:44.695Z,15.90
2022-09-10T10:47:43.326Z,15.80
2022-09-10T10:51:04.640Z,16.00
2022-09-10T10:53:57.987Z,15.40
2022-09-10T10:56:40.884Z,15.50
2022-09-10T10:59:43.026Z,16.30
2022-09-10T11:02:24.605Z,15.70
2022-09-10T11:04:54.681Z,15.70
2022-09-10T11:07:30.362Z,15.60
2022-09-10T11:10:39.461Z,15.50
2022-09-10T11:13:19.732Z,15.60
2022-09-10T11:16:05.416Z,15.60
2022-09-10T11:18:43.906Z,15.40
2022-09-10T11:21:31.315Z,15.80
2022-09-10T11:24:19.552Z,16.20
2022-09-10T11:27:15.598Z,16.20
2022-09-10T11:30:06.544Z,16.50
2022-09-10T11:32:42.762Z,17.60
2022-09-10T11:35:39.778Z,16.70
2022-09-10T11:38:24.683Z,16.80
2022-09-10T11:41:22.282Z,17.20
2022-09-10T11:44:21.730Z,16.70
2022-09-10T11:47:07.863Z,16.80
2022-09-10T11:50:07.123Z,15.80
2022-09-10T11:52:35.187Z,16.90
2022-09-10T11:55:04.256Z,17.00
2022-09-10T11:58:04.228Z,16.40
2022-09-10T12:00:40.970Z,16.70
2022-09-10T12:03:56.064Z,17.10
2022-09-10T12:07:03.401Z,17.10
2022-09-10T12:09:57.120Z,16.90
2022-09-10T12:12:45.739Z,16.80
2022-09-10T12:15:19.953Z,16.80
2022-09-10T12:17:59.873Z,16.90
2022-09-10T12:20:48.999Z,16.70
2022-09-10T12:23:43.522Z,16.80
2022-09-10T12:26:16.295Z,17.60
2022-09-10T12:28:43.054Z,16.80
2022-09-10T12:31:16.435Z,17.60
2022-09-10T12:33:45.832Z,17.60
2022-09-10T12:36:24.168Z,17.90
2022-09-10T12:39:16.287Z,18.70
2022-09-10T12:41:43.059Z,17.90
2022-09-10T12:44:36.337Z,18.10
2022-09-10T12:47:18.191Z,17.80
2022-09-10T12:49:59.442Z,17.60
2022-09-10T12:52:44.296Z,17.60
2022-09-10T12:55:21.726Z,17.50
2022-09-10T12:58:07.125Z,17.50
2022-09-10T13:00:55.848Z,17.40
2022-09-10T13:03:26.351Z,17.40
2022-09-10T13:05:57.078Z,17.40
2022-09-10T13:08:37.435Z,16.50
2022-09-10T13:11:21.390Z,17.20
2022-09-10T13:14:05.270Z,17.50
2022-09-10T13:16:32.508Z,17.70
2022-09-10T13:19:14.485Z,17.40
2022-09-10T13:21:41.232Z,17.70
2022-09-10T13:24:37.109Z,17.90
2022-09-10T13:27:18.810Z,17.90
2022-09-10T13:29:53.493Z,17.80
2022-09-10T13:32:28.854Z,17.80
2022-09-10T13:35:06.162Z,17.70
2022-09-10T13:38:28.445Z,17.70
2022-09-10T13:41:23.105Z,17.70
2022-09-10T13:44:15.909Z,17.50
2022-09-10T13:46:47.298Z,18.30
2022-09-10T13:49:26.312Z,17.80
2022-09-10T13:51:56.990Z,18.10
2022-09-10T13:54:34.426Z,18.20
2022-09-10T13:57:15.764Z,17.90
2022-09-10T13:59:44.359Z,17.90
2022-09-10T14:02:11.400Z,17.80
2022-09-10T14:04:44.758Z,17.80
2022-09-10T14:07:19.041Z,17.80
2022-09-10T14:10:00.782Z,18.00
2022-09-10T14:12:32.725Z,18.80
2022-09-10T14:15:06.369Z,19.10
2022-09-10T14:17:45.112Z,17.40
2022-09-10T14:20:26.864Z,17.80
2022-09-10T14:23:05.852Z,18.10
2022-09-10T14:25:35.718Z,17.80
2022-09-10T14:28:32.168Z,17.60
2022-09-10T14:31:26.825Z,17.80
2022-09-10T14:33:55.854Z,17.70
2022-09-10T14:36:35.607Z,17.80
2022-09-10T14:39:19.856Z,17.50
2022-09-10T14:41:48.106Z,17.70
2022-09-10T14:44:24.097Z,17.50
2022-09-10T14:47:09.282Z,17.30
2022-09-10T14:49:38.832Z,17.40
2022-09-10T14:52:07.806Z,17.60
2022-09-10T14:54:35.418Z,17.60
2022-09-10T14:57:06.519Z,17.40
2022-09-10T14:59:38.453Z,16.50
2022-09-10T15:02:21.797Z,17.40
2022-09-10T15:04:49.105Z,17.30
2022-09-10T15:07:16.216Z,17.20
2022-09-10T15:09:43.136Z,16.60
2022-09-10T15:12:19.983Z,16.60
2022-09-10T15:14:46.866Z,16.40
2022-09-10T15:17:15.129Z,16.80
2022-09-10T15:19:42.120Z,16.70
2022-09-10T15:22:27.056Z,16.60
2022-09-10T15:25:11.425Z,16.60
2022-09-10T15:27:38.713Z,16.00
2022-09-10T15:30:06.824Z,17.00
2022-09-10T15:32:33.717Z,17.00
2022-09-10T15:35:01.157Z,16.90
2022-09-10T15:37:28.045Z,16.10
2022-09-10T15:39:56.512Z,17.00
2022-09-10T15:42:23.467Z,16.80
2022-09-10T15:44:50.386Z,16.90
2022-09-10T15:47:17.269Z,16.90
2022-09-10T15:52:11.632Z,17.00
2022-09-10T15:54:38.841Z,17.10
2022-09-10T15:57:06.719Z,16.90
2022-09-10T15:59:33.681Z,17.00
2022-09-10T16:02:00.623Z,16.60
2022-09-10T16:04:30.697Z,16.50
2022-09-10T16:07:00.756Z,17.30
2022-09-10T16:09:27.703Z,16.20
2022-09-10T16:11:54.660Z,16.80
2022-09-10T16:14:21.654Z,16.30
2022-09-10T16:16:49.253Z,16.30
2022-09-10T16:19:16.188Z,16.50
2022-09-10T16:21:45.725Z,16.50
2022-09-10T16:24:12.879Z,16.30
2022-09-10T16:26:42.057Z,16.30
2022-09-10T16:29:28.521Z,16.80
2022-09-10T16:31:56.492Z,16.00
2022-09-10T16:34:23.519Z,16.50
2022-09-10T16:36:51.386Z,16.30
2022-09-10T16:39:19.949Z,16.10
2022-09-10T16:41:49.113Z,15.40
2022-09-10T16:44:18.158Z,16.20
2022-09-10T16:46:46.962Z,16.50
2022-09-10T16:49:18.097Z,16.90
2022-09-10T16:51:47.208Z,16.70
2022-09-10T16:54:15.857Z,15.90
2022-09-10T16:56:45.516Z,16.60
2022-09-10T16:59:16.194Z,16.00
2022-09-10T17:01:44.815Z,16.00
2022-09-10T17:04:19.780Z,17.20
2022-09-10T17:06:48.670Z,16.20
2022-09-10T17:09:15.974Z,16.50
2022-09-10T17:11:43.149Z,15.90
2022-09-10T17:16:40.807Z,16.40
2022-09-10T17:19:10.942Z,16.20
2022-09-10T17:21:42.880Z,16.10
2022-09-10T17:24:12.448Z,16.40
2022-09-10T17:26:41.261Z,16.40
2022-09-10T17:29:19.181Z,16.20
2022-09-10T17:31:46.999Z,16.10
2022-09-10T17:34:15.942Z,16.10
2022-09-10T17:36:45.911Z,15.60
2022-09-10T17:39:14.090Z,16.10
2022-09-10T17:41:41.936Z,16.00
2022-09-10T17:44:11.241Z,15.70
2022-09-10T17:46:38.632Z,15.80
2022-09-10T17:49:06.437Z,15.30
2022-09-10T17:51:35.178Z,15.90
2022-09-10T17:54:05.223Z,15.80
2022-09-10T17:56:32.262Z,15.30
2022-09-10T17:59:04.171Z,15.70
2022-09-10T18:01:36.188Z,15.90
2022-09-10T18:04:04.205Z,16.00
2022-09-10T18:06:32.231Z,14.40
2022-09-10T18:09:00.843Z,16.10
2022-09-10T18:11:31.538Z,15.80
2022-09-10T18:13:59.473Z,15.60
2022-09-10T18:16:30.083Z,15.90
2022-09-10T18:19:13.009Z,15.70
2022-09-10T18:21:42.336Z,15.80
2022-09-10T18:24:19.048Z,15.70
2022-09-10T18:26:48.578Z,15.70
2022-09-10T18:29:24.883Z,16.00
2022-09-10T18:31:58.187Z,15.20
2022-09-10T18:34:28.500Z,15.90
2022-09-10T18:36:59.157Z,15.30
2022-09-10T18:41:57.212Z,15.40
2022-09-10T18:44:29.020Z,15.70
2022-09-10T18:46:56.181Z,15.80
2022-09-10T18:49:25.063Z,15.60
2022-09-10T18:51:55.136Z,15.60
2022-09-10T18:54:24.048Z,15.20
2022-09-10T18:56:51.306Z,15.60
2022-09-10T18:59:23.077Z,15.00
2022-09-10T19:01:54.331Z,15.50
2022-09-10T19:04:28.004Z,15.20
2022-09-10T19:06:56.353Z,15.50
2022-09-10T19:09:29.634Z,15.40
2022-09-10T19:11:58.724Z,15.20
2022-09-10T19:14:31.197Z,15.40
2022-09-10T19:17:00.356Z,15.40
2022-09-10T19:19:31.183Z,14.50
2022-09-10T19:22:03.283Z,15.50
2022-09-10T19:24:54.138Z,15.50
2022-09-10T19:27:17.899Z,15.50
2022-09-10T19:29:47.190Z,15.30
2022-09-10T19:32:15.087Z,15.50
2022-09-10T19:34:42.708Z,15.70
2022-09-10T19:37:09.738Z,15.50
2022-09-10T19:39:36.700Z,14.90
2022-09-10T19:42:04.137Z,15.40
2022-09-10T19:44:30.993Z,15.30
2022-09-10T19:46:58.650Z,15.40
2022-09-10T19:49:25.547Z,14.90
2022-09-10T19:51:52.461Z,15.10
2022-09-10T19:54:19.398Z,15.10
2022-09-10T19:56:46.436Z,15.30
2022-09-10T19:59:14.247Z,15.20
2022-09-10T20:01:44.041Z,15.50
2022-09-10T20:04:12.613Z,15.40
2022-09-10T20:06:40.056Z,15.40
2022-09-10T20:09:09.871Z,15.20
2022-09-10T20:11:36.875Z,15.30
2022-09-10T20:14:13.086Z,15.20
2022-09-10T20:16:45.200Z,15.30
2022-09-10T20:19:17.919Z,14.30
2022-09-10T20:21:46.407Z,15.60
2022-09-10T20:24:13.619Z,14.30
2022-09-10T20:29:12.554Z,15.00
2022-09-10T20:31:41.577Z,15.40
2022-09-10T20:34:13.687Z,15.30
2022-09-10T20:36:42.231Z,15.30
2022-09-10T20:39:12.613Z,15.40
2022-09-10T20:41:40.122Z,15.30
2022-09-10T20:44:07.483Z,15.50
2022-09-10T20:46:34.692Z,15.10
2022-09-10T20:49:04.816Z,15.00
2022-09-10T20:51:38.714Z,15.30
2022-09-10T20:54:10.271Z,15.30
2022-09-10T20:56:37.226Z,15.30
2022-09-10T20:59:04.145Z,15.20
2022-09-10T21:01:31.286Z,15.00
2022-09-10T21:04:00.343Z,15.10
2022-09-10T21:06:31.124Z,15.40
2022-09-10T21:09:00.199Z,14.60
2022-09-10T21:11:32.059Z,15.30
2022-09-10T21:14:01.990Z,15.20
2022-09-10T21:16:31.752Z,14.70
2022-09-10T21:19:12.110Z,15.10
2022-09-10T21:21:40.451Z,15.70
2022-09-10T21:24:13.958Z,15.00
2022-09-10T21:26:43.193Z,15.30
2022-09-10T21:29:16.401Z,15.40
2022-09-10T21:31:45.161Z,15.10
2022-09-10T21:34:12.852Z,15.20
2022-09-10T21:36:43.819Z,15.20
2022-09-10T21:39:17.165Z,15.20
2022-09-10T21:41:47.738Z,15.90
2022-09-10T21:44:23.075Z,15.30
2022-09-10T21:46:50.165Z,15.20
2022-09-10T21:49:18.330Z,15.40
2022-09-10T21:51:45.236Z,15.20
2022-09-10T21:54:22.016Z,15.40
2022-09-10T21:56:50.626Z,15.30
2022-09-10T21:59:17.869Z,15.20
2022-09-10T22:01:46.478Z,15.30
2022-09-10T22:04:18.833Z,15.10
2022-09-10T22:06:48.646Z,15.20
2022-09-10T22:09:16.536Z,15.30
2022-09-10T22:11:47.094Z,15.10
2022-09-10T22:14:22.857Z,15.20
2022-09-10T22:16:51.097Z,15.00
2022-09-10T22:19:22.394Z,15.20
2022-09-10T22:21:50.070Z,15.30
2022-09-10T22:24:20.078Z,15.20
2022-09-10T22:29:19.504Z,15.00
2022-09-10T22:31:47.190Z,15.10
2022-09-10T22:34:17.263Z,15.70
2022-09-10T22:36:46.004Z,14.30
2022-09-10T22:39:21.337Z,15.10
2022-09-10T22:41:50.409Z,15.10
2022-09-10T22:44:17.993Z,15.40
2022-09-10T22:46:45.147Z,15.50
2022-09-10T22:49:12.490Z,15.20
2022-09-10T22:51:43.991Z,15.20
2022-09-10T22:54:11.449Z,15.00
2022-09-10T22:56:39.482Z,14.80
2022-09-10T22:59:07.357Z,14.70
2022-09-10T23:01:37.409Z,15.20
2022-09-10T23:04:06.877Z,14.70
2022-09-10T23:06:37.058Z,14.30
2022-09-10T23:09:12.952Z,14.70
2022-09-10T23:11:41.349Z,14.30
2022-09-10T23:14:13.233Z,14.40
2022-09-10T23:16:42.217Z,14.50
2022-09-10T23:19:15.649Z,14.60
2022-09-10T23:21:49.163Z,14.60
2022-09-10T23:24:19.524Z,14.60
2022-09-10T23:26:46.591Z,14.70
2022-09-10T23:29:13.706Z,14.70
2022-09-10T23:31:41.058Z,14.70
2022-09-10T23:34:14.397Z,14.60
2022-09-10T23:36:44.249Z,14.50
2022-09-10T23:39:20.762Z,14.30
2022-09-10T23:41:49.710Z,14.60
2022-09-10T23:44:17.470Z,14.60
2022-09-10T23:46:44.677Z,14.40
2022-09-10T23:49:12.567Z,14.70
2022-09-10T23:51:39.459Z,14.80
2022-09-10T23:54:06.598Z,13.70
2022-09-10T23:56:33.497Z,16.10
2022-09-10T23:59:00.608Z,13.80
